Time,TemperatureF,DewpointF,PressureIn,WindDirection,WindDirectionDegrees,WindSpeedMPH,WindSpeedGustMPH,Humidity,HourlyPrecipIn,Conditions,Clouds,dailyrainin,SoftwareType,DateUTC
2013-06-29 00:00:00,60.3,60.3,29.58,NW,315,0.0,0.0,100,0.00,RA,,0.00,WeatherDisplay:10.37,2013-06-29 04:00:00,
2013-06-29 00:01:00,60.3,60.3,29.58,NW,315,0.0,0.0,100,0.00,RA,,0.00,WeatherDisplay:10.37,2013-06-29 04:01:00,
2013-06-29 00:02:00,60.1,60.1,29.58,NW,315,0.0,0.0,100,0.00,RA,,0.00,WeatherDisplay:10.37,2013-06-29 04:02:00,
2013-06-29 00:03:00,60.1,60.1,29.58,NW,315,0.0,0.0,100,0.00,RA,,0.00,WeatherDisplay:10.37,2013-06-29 04:03:00,
2013-06-29 00:05:00,60.1,60.1,29.58,NW,315,0.0,0.0,100,0.00,RA,RA,0.00,WeatherDisplay:10.37,2013-06-29 04:05:00,
2013-06-29 00:10:00,60.1,60.1,29.58,NW,315,0.0,0.0,100,0.00,RA,,0.00,WeatherDisplay:10.37,2013-06-29 04:10:00,
2013-06-29 00:15:00,60.8,60.8,29.58,SSW,202,2.9,4.6,100,0.00,BKN,,0.00,WeatherDisplay:10.37,2013-06-29 04:15:00,
2013-06-29 00:20:00,60.6,60.6,29.58,South,180,0.0,0.0,100,0.00,BKN,,0.00,WeatherDisplay:10.37,2013-06-29 04:20:00,
2013-06-29 00:25:00,60.4,60.4,29.58,South,180,0.0,0.0,100,0.00,BKN,,0.00,WeatherDisplay:10.37,2013-06-29 04:25:00,
2013-06-29 00:30:00,60.1,60.1,29.58,SSW,202,0.0,0.0,100,0.00,BKN,,0.00,WeatherDisplay:10.37,2013-06-29 04:30:00,
2013-06-29 00:35:00,60.1,60.1,29.58,SSW,202,0.0,0.0,100,0.00,BKN,,0.00,WeatherDisplay:10.37,2013-06-29 04:35:00,
2013-06-29 00:40:00,60.1,60.1,29.58,SSW,202,0.0,0.0,100,0.00,BKN,,0.00,WeatherDisplay:10.37,2013-06-29 04:40:00,
2013-06-29 00:45:00,59.9,59.9,29.58,SSW,202,0.0,0.0,100,0.00,BKN,,0.00,WeatherDisplay:10.37,2013-06-29 04:45:00,
2013-06-29 00:50:00,60.1,60.1,29.58,SSE,158,0.0,0.0,100,0.00,BKN,,0.00,WeatherDisplay:10.37,2013-06-29 04:50:00,
2013-06-29 00:55:00,60.1,60.1,29.58,SSE,158,0.0,0.0,100,0.00,BKN,,0.00,WeatherDisplay:10.37,2013-06-29 04:55:00,
2013-06-29 01:00:00,60.1,60.1,29.58,SSE,158,0.0,0.0,100,0.00,BKN,,0.00,WeatherDisplay:10.37,2013-06-29 05:00:00,
2013-06-29 01:05:00,60.1,60.1,29.58,SSE,158,0.0,0.0,100,0.00,BKN,,0.00,WeatherDisplay:10.37,2013-06-29 05:05:00,
2013-06-29 01:10:00,59.9,59.9,29.58,SSE,158,0.0,0.0,100,0.00,BKN,,0.00,WeatherDisplay:10.37,2013-06-29 05:10:00,
2013-06-29 01:15:00,59.7,59.7,29.57,SSE,158,0.0,0.0,100,0.00,BKN,,0.00,WeatherDisplay:10.37,2013-06-29 05:15:00,
2013-06-29 01:20:00,59.5,59.5,29.57,SSE,158,0.0,0.0,100,0.00,BKN,,0.00,WeatherDisplay:10.37,2013-06-29 05:20:00,
2013-06-29 01:25:00,59.5,59.5,29.57,SSE,158,0.0,0.0,100,0.00,BKN,,0.00,WeatherDisplay:10.37,2013-06-29 05:25:00,
2013-06-29 01:30:00,59.5,59.5,29.58,SSE,158,0.0,0.0,100,0.00,BKN,,0.00,WeatherDisplay:10.37,2013-06-29 05:30:00,
2013-06-29 01:35:00,59.5,59.5,29.58,SSE,158,0.0,0.0,100,0.00,BKN,,0.00,WeatherDisplay:10.37,2013-06-29 05:35:00,
2013-06-29 01:40:00,59.9,59.9,29.58,SSE,158,0.0,0.0,100,0.00,BKN,,0.00,WeatherDisplay:10.37,2013-06-29 05:40:00,
2013-06-29 01:45:00,59.9,59.9,29.58,SSE,158,0.0,0.0,100,0.00,BKN,,0.00,WeatherDisplay:10.37,2013-06-29 05:45:00,
2013-06-29 01:50:00,60.1,60.1,29.58,SSE,158,0.0,0.0,100,0.00,BKN,,0.00,WeatherDisplay:10.37,2013-06-29 05:50:00,
2013-06-29 01:55:00,61.0,61.0,29.58,SSE,158,2.8,4.6,100,0.00,BKN,,0.00,WeatherDisplay:10.37,2013-06-29 05:55:00,
2013-06-29 02:00:00,61.5,61.5,29.58,SSE,158,2.0,4.6,100,0.00,BKN,,0.00,WeatherDisplay:10.37,2013-06-29 06:00:00,
2013-06-29 02:05:00,62.1,62.1,29.58,SSE,158,3.5,4.6,100,0.00,BKN,,0.00,WeatherDisplay:10.37,2013-06-29 06:05:00,
2013-06-29 02:10:00,62.2,62.2,29.58,SSW,202,4.5,6.9,100,0.00,BKN,,0.00,WeatherDisplay:10.37,2013-06-29 06:10:00,
2013-06-29 02:15:00,62.4,62.4,29.58,SSW,202,4.2,5.8,100,0.00,BKN,,0.00,WeatherDisplay:10.37,2013-06-29 06:15:00,
2013-06-29 02:20:00,62.6,62.6,29.58,West,270,4.2,7.0,100,0.00,BKN,,0.00,WeatherDisplay:10.37,2013-06-29 06:20:00,
2013-06-29 02:25:00,62.8,62.8,29.58,SW,225,6.0,9.5,100,0.00,BKN,,0.00,WeatherDisplay:10.37,2013-06-29 06:25:00,
2013-06-29 02:30:00,63.0,63.0,29.58,SSW,202,3.6,6.9,100,0.00,BKN,,0.00,WeatherDisplay:10.37,2013-06-29 06:30:00,
2013-06-29 02:35:00,63.0,63.0,29.58,ESE,112,4.8,5.8,100,0.00,BKN,,0.00,WeatherDisplay:10.37,2013-06-29 06:35:00,
2013-06-29 02:40:00,63.1,63.1,29.58,West,270,2.5,5.3,100,0.00,BKN,,0.00,WeatherDisplay:10.37,2013-06-29 06:40:00,
2013-06-29 02:45:00,63.1,63.1,29.58,South,180,3.9,6.1,100,0.00,BKN,,0.00,WeatherDisplay:10.37,2013-06-29 06:45:00,
2013-06-29 02:50:00,63.3,63.3,29.58,SSE,158,3.4,9.2,100,0.00,BKN,,0.00,WeatherDisplay:10.37,2013-06-29 06:50:00,
2013-06-29 02:55:00,63.3,63.3,29.57,SSW,202,4.2,7.0,100,0.00,BKN,,0.00,WeatherDisplay:10.37,2013-06-29 06:55:00,
2013-06-29 03:00:00,63.3,63.3,29.57,WSW,248,3.6,4.6,100,0.00,BKN,,0.00,WeatherDisplay:10.37,2013-06-29 07:00:00,
2013-06-29 03:05:00,63.3,63.3,29.57,SSW,202,3.9,6.1,100,0.00,BKN,,0.00,WeatherDisplay:10.37,2013-06-29 07:05:00,
2013-06-29 03:10:00,63.3,63.3,29.57,WSW,248,0.0,0.0,100,0.00,BKN,,0.00,WeatherDisplay:10.37,2013-06-29 07:10:00,
2013-06-29 03:15:00,63.3,63.3,29.57,WSW,248,1.5,3.6,100,0.00,BKN,,0.00,WeatherDisplay:10.37,2013-06-29 07:15:00,
2013-06-29 03:20:00,63.3,63.3,29.57,SW,225,1.1,3.5,100,0.00,BKN,,0.00,WeatherDisplay:10.37,2013-06-29 07:20:00,
2013-06-29 03:25:00,63.3,63.0,29.57,SSW,202,2.6,3.6,99,0.00,BKN,,0.00,WeatherDisplay:10.37,2013-06-29 07:25:00,
2013-06-29 03:30:00,63.3,63.0,29.57,SSW,202,0.9,2.3,99,0.00,BKN,,0.00,WeatherDisplay:10.37,2013-06-29 07:30:00,
2013-06-29 03:35:00,63.3,63.0,29.57,SSE,158,3.2,4.6,99,0.00,BKN,,0.00,WeatherDisplay:10.37,2013-06-29 07:35:00,
2013-06-29 03:40:00,63.3,63.0,29.57,South,180,2.4,2.7,99,0.00,BKN,,0.00,WeatherDisplay:10.37,2013-06-29 07:40:00,
2013-06-29 03:45:00,63.5,63.2,29.57,SSW,202,2.3,4.6,99,0.00,BKN,,0.00,WeatherDisplay:10.37,2013-06-29 07:45:00,
2013-06-29 03:50:00,63.5,63.2,29.57,SSE,158,2.8,3.6,99,0.00,BKN,,0.00,WeatherDisplay:10.37,2013-06-29 07:50:00,
2013-06-29 03:55:00,63.5,63.2,29.57,South,180,0.0,0.0,99,0.00,BKN,,0.00,WeatherDisplay:10.37,2013-06-29 07:55:00,
2013-06-29 04:00:00,63.5,63.2,29.57,SSE,158,1.5,3.6,99,0.00,BKN,,0.00,WeatherDisplay:10.37,2013-06-29 08:00:00,
2013-06-29 04:05:00,63.5,63.2,29.57,South,180,3.5,4.6,99,0.00,BKN,,0.00,WeatherDisplay:10.37,2013-06-29 08:05:00,
2013-06-29 04:10:00,63.5,63.2,29.57,South,180,3.3,5.8,99,0.00,BKN,,0.00,WeatherDisplay:10.37,2013-06-29 08:10:00,
2013-06-29 04:15:00,63.5,63.2,29.58,SSW,202,4.3,4.6,99,0.00,BKN,,0.00,WeatherDisplay:10.37,2013-06-29 08:15:00,
2013-06-29 04:20:00,63.3,62.7,29.58,South,180,4.8,6.9,98,0.00,BKN,,0.00,WeatherDisplay:10.37,2013-06-29 08:20:00,
2013-06-29 04:25:00,63.3,62.7,29.58,SSE,158,3.3,4.6,98,0.00,BKN,,0.00,WeatherDisplay:10.37,2013-06-29 08:25:00,
2013-06-29 04:30:00,63.3,62.7,29.58,WSW,248,3.8,5.8,98,0.00,BKN,,0.00,WeatherDisplay:10.37,2013-06-29 08:30:00,
2013-06-29 04:35:00,63.1,62.5,29.58,South,180,1.5,5.8,98,0.00,BKN,,0.00,WeatherDisplay:10.37,2013-06-29 08:35:00,
2013-06-29 04:40:00,63.1,62.5,29.58,SW,225,3.6,5.8,98,0.00,BKN,,0.00,WeatherDisplay:10.37,2013-06-29 08:40:00,
2013-06-29 04:45:00,63.0,62.4,29.58,SSE,158,1.0,3.5,98,0.00,BKN,,0.00,WeatherDisplay:10.37,2013-06-29 08:45:00,
2013-06-29 04:50:00,63.0,62.4,29.58,SSE,158,2.4,2.7,98,0.00,BKN,,0.00,WeatherDisplay:10.37,2013-06-29 08:50:00,
2013-06-29 04:55:00,63.0,62.4,29.58,South,180,0.8,3.6,98,0.00,BKN,,0.00,WeatherDisplay:10.37,2013-06-29 08:55:00,
2013-06-29 05:00:00,63.0,62.4,29.58,SSW,202,2.7,4.6,98,0.00,BKN,,0.00,WeatherDisplay:10.37,2013-06-29 09:00:00,
2013-06-29 05:05:00,62.8,62.2,29.58,SW,225,3.0,4.6,98,0.00,BKN,,0.00,WeatherDisplay:10.37,2013-06-29 09:05:00,
2013-06-29 05:10:00,62.8,62.2,29.58,SW,225,2.6,5.8,98,0.00,BKN,,0.00,WeatherDisplay:10.37,2013-06-29 09:10:00,
2013-06-29 05:15:00,62.8,62.2,29.58,SW,225,2.4,3.6,98,0.00,BKN,,0.00,WeatherDisplay:10.37,2013-06-29 09:15:00,
2013-06-29 05:20:00,62.8,62.2,29.58,SSW,202,0.7,2.7,98,0.00,BKN,,0.00,WeatherDisplay:10.37,2013-06-29 09:20:00,
2013-06-29 05:25:00,62.6,62.0,29.58,SSE,158,3.1,4.4,98,0.00,BKN,,0.00,WeatherDisplay:10.37,2013-06-29 09:25:00,
2013-06-29 05:30:00,62.4,61.8,29.59,WSW,248,3.3,4.6,98,0.00,BKN,,0.00,WeatherDisplay:10.37,2013-06-29 09:30:00,
2013-06-29 05:35:00,62.4,61.8,29.59,South,180,3.4,5.8,98,0.00,BKN,,0.00,WeatherDisplay:10.37,2013-06-29 09:35:00,
2013-06-29 05:40:00,62.4,61.8,29.59,South,180,0.0,0.0,98,0.00,BKN,,0.00,WeatherDisplay:10.37,2013-06-29 09:40:00,
2013-06-29 05:45:00,62.2,61.6,29.59,SSE,158,1.4,2.3,98,0.00,BKN,,0.00,WeatherDisplay:10.37,2013-06-29 09:45:00,
2013-06-29 05:50:00,62.2,61.6,29.59,WSW,248,0.0,0.0,98,0.00,BKN,,0.00,WeatherDisplay:10.37,2013-06-29 09:50:00,
2013-06-29 05:55:00,62.2,61.6,29.59,SSW,202,0.5,2.3,98,0.00,BKN,,0.00,WeatherDisplay:10.37,2013-06-29 09:55:00,
2013-06-29 06:00:00,62.2,61.6,29.59,SSW,202,0.0,3.5,98,0.00,BKN,,0.00,WeatherDisplay:10.37,2013-06-29 10:00:00,
2013-06-29 06:05:00,62.2,61.6,29.60,South,180,4.2,4.6,98,0.00,BKN,,0.00,WeatherDisplay:10.37,2013-06-29 10:05:00,
2013-06-29 06:10:00,62.2,61.6,29.60,South,180,1.9,3.6,98,0.00,BKN,,0.00,WeatherDisplay:10.37,2013-06-29 10:10:00,
2013-06-29 06:15:00,62.2,61.6,29.60,SSW,202,0.8,5.8,98,0.00,BKN,,0.00,WeatherDisplay:10.37,2013-06-29 10:15:00,
2013-06-29 06:20:00,62.2,61.6,29.60,SSW,202,2.8,3.6,98,0.00,BKN,,0.00,WeatherDisplay:10.37,2013-06-29 10:20:00,
2013-06-29 06:25:00,62.2,61.6,29.60,SW,225,1.1,3.5,98,0.00,BKN,,0.00,WeatherDisplay:10.37,2013-06-29 10:25:00,
2013-06-29 06:30:00,62.2,61.6,29.60,SSE,158,1.3,3.5,98,0.00,BKN,,0.00,WeatherDisplay:10.37,2013-06-29 10:30:00,
2013-06-29 06:35:00,62.4,61.8,29.60,SSW,202,1.7,2.7,98,0.00,BKN,,0.00,WeatherDisplay:10.37,2013-06-29 10:35:00,
2013-06-29 06:40:00,62.4,61.8,29.61,SSW,202,3.5,7.8,98,0.00,BKN,,0.00,WeatherDisplay:10.37,2013-06-29 10:40:00,
2013-06-29 06:45:00,62.6,61.7,29.61,SSE,158,3.6,5.8,97,0.00,BKN,,0.00,WeatherDisplay:10.37,2013-06-29 10:45:00,
2013-06-29 06:50:00,62.6,61.7,29.61,SW,225,3.0,3.6,97,0.00,BKN,,0.00,WeatherDisplay:10.37,2013-06-29 10:50:00,
2013-06-29 06:55:00,62.6,61.7,29.61,SSW,202,3.4,4.6,97,0.00,BKN,,0.00,WeatherDisplay:10.37,2013-06-29 10:55:00,
2013-06-29 07:00:00,62.8,61.9,29.61,SSW,202,1.9,3.5,97,0.00,BKN,,0.00,WeatherDisplay:10.37,2013-06-29 11:00:00,
2013-06-29 07:05:00,63.0,62.1,29.61,SW,225,1.5,4.6,97,0.00,SCT,,0.00,WeatherDisplay:10.37,2013-06-29 11:05:00,
2013-06-29 07:10:00,63.0,61.8,29.61,WSW,248,4.1,5.8,96,0.00,SCT,,0.00,WeatherDisplay:10.37,2013-06-29 11:10:00,
2013-06-29 07:15:00,63.1,61.9,29.62,West,270,4.4,6.1,96,0.00,SCT,,0.00,WeatherDisplay:10.37,2013-06-29 11:15:00,
2013-06-29 07:20:00,63.3,61.8,29.62,SW,225,1.9,3.5,95,0.00,SCT,,0.00,WeatherDisplay:10.37,2013-06-29 11:20:00,
2013-06-29 07:25:00,63.3,61.8,29.62,South,180,4.7,5.8,95,0.00,SCT,,0.00,WeatherDisplay:10.37,2013-06-29 11:25:00,
2013-06-29 07:30:00,63.3,61.8,29.62,SSW,202,5.8,7.8,95,0.00,SCT,,0.00,WeatherDisplay:10.37,2013-06-29 11:30:00,
2013-06-29 07:35:00,63.9,62.1,29.62,SW,225,1.6,5.8,94,0.00,SCT,,0.00,WeatherDisplay:10.37,2013-06-29 11:35:00,
2013-06-29 07:40:00,64.0,61.9,29.62,SW,225,3.4,8.1,93,0.00,SCT,,0.00,WeatherDisplay:10.37,2013-06-29 11:40:00,
2013-06-29 07:45:00,64.6,62.2,29.62,SSW,202,3.1,5.8,92,0.00,SCT,,0.00,WeatherDisplay:10.37,2013-06-29 11:45:00,
2013-06-29 07:50:00,64.8,62.4,29.62,SSE,158,4.9,7.0,92,0.00,SCT,,0.00,WeatherDisplay:10.37,2013-06-29 11:50:00,
2013-06-29 07:55:00,64.6,62.2,29.62,South,180,4.8,9.2,92,0.00,SCT,,0.00,WeatherDisplay:10.37,2013-06-29 11:55:00,
2013-06-29 08:00:00,64.6,62.2,29.62,SW,225,2.3,4.6,92,0.00,SCT,,0.00,WeatherDisplay:10.37,2013-06-29 12:00:00,
2013-06-29 08:05:00,64.8,62.4,29.62,South,180,3.2,3.6,92,0.00,BKN,,0.00,WeatherDisplay:10.37,2013-06-29 12:05:00,
2013-06-29 08:10:00,64.8,62.4,29.62,SSW,202,3.1,5.8,92,0.00,BKN,,0.00,WeatherDisplay:10.37,2013-06-29 12:10:00,
2013-06-29 08:15:00,64.9,62.5,29.63,SSW,202,2.4,2.7,92,0.00,BKN,,0.00,WeatherDisplay:10.37,2013-06-29 12:15:00,
2013-06-29 08:20:00,65.1,62.4,29.63,SSW,202,4.3,5.8,91,0.00,BKN,,0.00,WeatherDisplay:10.37,2013-06-29 12:20:00,
2013-06-29 08:25:00,65.5,62.8,29.63,WNW,292,2.0,5.8,91,0.00,BKN,,0.00,WeatherDisplay:10.37,2013-06-29 12:25:00,
2013-06-29 08:30:00,65.3,62.6,29.63,SSE,158,1.2,4.6,91,0.00,BKN,,0.00,WeatherDisplay:10.37,2013-06-29 12:30:00,
2013-06-29 08:35:00,65.8,62.8,29.63,WNW,292,3.2,4.6,90,0.00,BKN,,0.00,WeatherDisplay:10.37,2013-06-29 12:35:00,
2013-06-29 08:40:00,66.4,63.1,29.63,WSW,248,3.1,5.8,89,0.00,BKN,,0.00,WeatherDisplay:10.37,2013-06-29 12:40:00,
2013-06-29 08:45:00,67.3,63.0,29.63,SW,225,5.8,8.7,86,0.00,BKN,,0.00,WeatherDisplay:10.37,2013-06-29 12:45:00,
2013-06-29 08:50:00,67.5,63.2,29.63,WNW,292,4.5,6.1,86,0.00,BKN,,0.00,WeatherDisplay:10.37,2013-06-29 12:50:00,
2013-06-29 08:55:00,68.0,63.3,29.63,South,180,6.2,9.5,85,0.00,BKN,,0.00,WeatherDisplay:10.37,2013-06-29 12:55:00,
2013-06-29 09:00:00,67.5,63.2,29.63,West,270,3.7,5.8,86,0.00,BKN,,0.00,WeatherDisplay:10.37,2013-06-29 13:00:00,
2013-06-29 09:05:00,68.2,63.9,29.63,SSW,202,6.2,8.7,86,0.00,BKN,,0.00,WeatherDisplay:10.37,2013-06-29 13:05:00,
2013-06-29 09:10:00,69.1,63.4,29.63,SSW,202,4.7,9.2,82,0.00,BKN,,0.00,WeatherDisplay:10.37,2013-06-29 13:10:00,
2013-06-29 09:15:00,69.6,63.5,29.63,West,270,3.8,10.4,81,0.00,BKN,,0.00,WeatherDisplay:10.37,2013-06-29 13:15:00,
2013-06-29 09:20:00,70.0,63.9,29.63,SW,225,4.9,6.9,81,0.00,BKN,,0.00,WeatherDisplay:10.37,2013-06-29 13:20:00,
2013-06-29 09:25:00,70.5,63.7,29.63,WSW,248,4.3,7.0,79,0.00,BKN,,0.00,WeatherDisplay:10.37,2013-06-29 13:25:00,
2013-06-29 09:30:00,70.0,63.5,29.63,West,270,6.2,7.0,80,0.00,BKN,,0.00,WeatherDisplay:10.37,2013-06-29 13:30:00,
2013-06-29 09:35:00,70.7,64.2,29.63,West,270,4.0,8.1,80,0.00,BKN,,0.00,WeatherDisplay:10.37,2013-06-29 13:35:00,
2013-06-29 09:40:00,70.5,63.7,29.64,WSW,248,4.6,6.9,79,0.00,BKN,,0.00,WeatherDisplay:10.37,2013-06-29 13:40:00,
2013-06-29 09:45:00,70.9,64.1,29.64,NNW,338,3.3,5.8,79,0.00,BKN,,0.00,WeatherDisplay:10.37,2013-06-29 13:45:00,
2013-06-29 09:50:00,71.2,64.0,29.64,SSW,202,4.9,9.2,78,0.00,BKN,,0.00,WeatherDisplay:10.37,2013-06-29 13:50:00,
2013-06-29 09:55:00,71.4,64.2,29.64,South,180,6.0,8.1,78,0.00,BKN,,0.00,WeatherDisplay:10.37,2013-06-29 13:55:00,
2013-06-29 10:00:00,71.6,64.0,29.64,WNW,292,6.2,10.4,77,0.00,BKN,,0.00,WeatherDisplay:10.37,2013-06-29 14:00:00,
2013-06-29 10:05:00,72.0,64.0,29.63,West,270,3.7,6.9,76,0.00,BKN,,0.00,WeatherDisplay:10.37,2013-06-29 14:05:00,
2013-06-29 10:10:00,72.0,64.0,29.63,WNW,292,6.4,12.1,76,0.00,BKN,,0.00,WeatherDisplay:10.37,2013-06-29 14:10:00,
2013-06-29 10:15:00,71.4,64.5,29.62,West,270,3.5,5.8,79,0.00,BKN,,0.00,WeatherDisplay:10.37,2013-06-29 14:15:00,
2013-06-29 10:20:00,72.7,64.7,29.62,South,180,3.6,6.9,76,0.00,BKN,,0.00,WeatherDisplay:10.37,2013-06-29 14:20:00,
2013-06-29 10:25:00,73.0,64.6,29.62,SW,225,3.8,8.1,75,0.00,BKN,,0.00,WeatherDisplay:10.37,2013-06-29 14:25:00,
2013-06-29 10:30:00,73.4,64.2,29.62,SW,225,10.2,11.5,73,0.00,BKN,,0.00,WeatherDisplay:10.37,2013-06-29 14:30:00,
2013-06-29 10:35:00,73.0,64.2,29.62,South,180,4.2,10.4,74,0.00,BKN,,0.00,WeatherDisplay:10.37,2013-06-29 14:35:00,
2013-06-29 10:40:00,73.8,65.4,29.62,West,270,5.1,8.1,75,0.00,BKN,,0.00,WeatherDisplay:10.37,2013-06-29 14:40:00,
2013-06-29 10:45:00,74.3,64.7,29.62,SSE,158,3.8,6.9,72,0.00,BKN,,0.00,WeatherDisplay:10.37,2013-06-29 14:45:00,
2013-06-29 10:50:00,74.5,64.9,29.62,SW,225,4.6,6.9,72,0.00,BKN,,0.00,WeatherDisplay:10.37,2013-06-29 14:50:00,
2013-06-29 10:55:00,74.3,64.7,29.62,West,270,3.6,5.3,72,0.00,BKN,,0.00,WeatherDisplay:10.37,2013-06-29 14:55:00,
2013-06-29 11:00:00,75.0,65.4,29.62,WSW,248,4.4,4.6,72,0.00,BKN,,0.00,WeatherDisplay:10.37,2013-06-29 15:00:00,
2013-06-29 11:05:00,75.0,65.4,29.61,SSW,202,4.6,5.3,72,0.00,SCT,,0.00,WeatherDisplay:10.37,2013-06-29 15:05:00,
2013-06-29 11:10:00,75.4,65.3,29.61,West,270,4.7,8.1,71,0.00,SCT,,0.00,WeatherDisplay:10.37,2013-06-29 15:10:00,
2013-06-29 11:15:00,76.1,65.6,29.61,SSW,202,5.2,6.9,70,0.00,SCT,,0.00,WeatherDisplay:10.37,2013-06-29 15:15:00,
2013-06-29 11:20:00,75.9,65.0,29.61,SW,225,5.1,9.2,69,0.00,SCT,,0.00,WeatherDisplay:10.37,2013-06-29 15:20:00,
2013-06-29 11:25:00,75.4,64.5,29.61,SW,225,8.1,11.2,69,0.00,SCT,,0.00,WeatherDisplay:10.37,2013-06-29 15:25:00,
2013-06-29 11:30:00,75.9,65.0,29.61,SW,225,5.5,8.7,69,0.00,SCT,,0.00,WeatherDisplay:10.37,2013-06-29 15:30:00,
2013-06-29 11:35:00,76.1,65.2,29.61,NNE,22,6.1,9.2,69,0.00,SCT,,0.00,WeatherDisplay:10.37,2013-06-29 15:35:00,
2013-06-29 11:40:00,76.1,64.8,29.62,WSW,248,6.2,7.0,68,0.00,SCT,,0.00,WeatherDisplay:10.37,2013-06-29 15:40:00,
2013-06-29 11:45:00,76.1,64.8,29.62,SSW,202,6.3,10.4,68,0.00,SCT,,0.00,WeatherDisplay:10.37,2013-06-29 15:45:00,
2013-06-29 11:50:00,76.6,65.2,29.62,SSE,158,6.4,9.2,68,0.00,SCT,,0.00,WeatherDisplay:10.37,2013-06-29 15:50:00,
2013-06-29 11:55:00,76.1,64.3,29.62,West,270,7.9,10.4,67,0.00,SCT,,0.00,WeatherDisplay:10.37,2013-06-29 15:55:00,
2013-06-29 12:00:00,76.8,65.9,29.62,SE,135,8.0,13.8,69,0.00,SCT,,0.00,WeatherDisplay:10.37,2013-06-29 16:00:00,
2013-06-29 12:05:00,77.2,65.8,29.62,NNW,338,4.4,5.8,68,0.00,SCT,,0.00,WeatherDisplay:10.37,2013-06-29 16:05:00,
2013-06-29 12:10:00,77.4,65.6,29.62,West,270,10.4,10.4,67,0.00,SCT,,0.00,WeatherDisplay:10.37,2013-06-29 16:10:00,
2013-06-29 12:15:00,76.3,65.0,29.62,SW,225,6.1,10.4,68,0.00,SCT,,0.00,WeatherDisplay:10.37,2013-06-29 16:15:00,
2013-06-29 12:20:00,76.3,65.4,29.62,SSE,158,6.7,8.1,69,0.00,SCT,,0.00,WeatherDisplay:10.37,2013-06-29 16:20:00,
2013-06-29 12:25:00,75.9,64.6,29.62,SW,225,4.4,5.8,68,0.00,SCT,,0.00,WeatherDisplay:10.37,2013-06-29 16:25:00,
2013-06-29 12:30:00,75.6,65.1,29.62,WNW,292,3.3,5.8,70,0.00,SCT,,0.00,WeatherDisplay:10.37,2013-06-29 16:30:00,
2013-06-29 12:35:00,75.4,64.9,29.62,West,270,4.0,6.9,70,0.00,SCT,,0.00,WeatherDisplay:10.37,2013-06-29 16:35:00,
2013-06-29 12:40:00,75.6,65.1,29.62,SW,225,5.3,7.0,70,0.00,SCT,,0.00,WeatherDisplay:10.37,2013-06-29 16:40:00,
2013-06-29 12:45:00,75.2,65.9,29.62,SW,225,4.0,5.8,73,0.00,SCT,,0.00,WeatherDisplay:10.37,2013-06-29 16:45:00,
2013-06-29 12:50:00,74.5,65.3,29.62,WSW,248,4.8,8.1,73,0.00,SCT,,0.00,WeatherDisplay:10.37,2013-06-29 16:50:00,
2013-06-29 12:55:00,72.7,65.8,29.64,SW,225,4.0,8.1,79,0.01,RA,,0.01,WeatherDisplay:10.37,2013-06-29 16:55:00,
2013-06-29 13:00:00,71.4,65.6,29.64,WSW,248,3.0,4.4,82,0.02,RA,,0.02,WeatherDisplay:10.37,2013-06-29 17:00:00,
2013-06-29 13:05:00,70.3,65.9,29.63,West,270,3.6,4.6,86,0.02,RA,,0.02,WeatherDisplay:10.37,2013-06-29 17:05:00,
2013-06-29 13:10:00,71.1,66.7,29.63,SSE,158,3.4,4.6,86,0.02,RA,,0.02,WeatherDisplay:10.37,2013-06-29 17:10:00,
2013-06-29 13:15:00,72.0,66.9,29.63,WNW,292,3.8,4.6,84,0.02,BKN,,0.02,WeatherDisplay:10.37,2013-06-29 17:15:00,
2013-06-29 13:20:00,73.2,67.7,29.63,WSW,248,2.6,4.4,83,0.02,BKN,,0.02,WeatherDisplay:10.37,2013-06-29 17:20:00,
2013-06-29 13:25:00,74.5,67.6,29.63,West,270,6.6,9.5,79,0.02,BKN,,0.02,WeatherDisplay:10.37,2013-06-29 17:25:00,
2013-06-29 13:30:00,75.9,67.8,29.63,SW,225,7.1,11.5,76,0.02,BKN,,0.02,WeatherDisplay:10.37,2013-06-29 17:30:00,
2013-06-29 13:35:00,76.3,66.2,29.63,South,180,6.1,11.5,71,0.02,BKN,,0.02,WeatherDisplay:10.37,2013-06-29 17:35:00,
2013-06-29 13:40:00,75.0,65.8,29.62,WSW,248,5.9,9.2,73,0.02,BKN,,0.02,WeatherDisplay:10.37,2013-06-29 17:40:00,
2013-06-29 13:45:00,74.3,65.5,29.62,West,270,5.8,10.4,74,0.02,BKN,,0.02,WeatherDisplay:10.37,2013-06-29 17:45:00,
2013-06-29 13:50:00,73.9,65.9,29.62,South,180,4.4,5.8,76,0.02,BKN,,0.02,WeatherDisplay:10.37,2013-06-29 17:50:00,
2013-06-29 13:55:00,72.9,64.9,29.62,SSW,202,4.9,11.5,76,0.01,BKN,,0.02,WeatherDisplay:10.37,2013-06-29 17:55:00,
2013-06-29 14:00:00,74.1,65.3,29.62,South,180,6.8,9.2,74,0.00,BKN,,0.02,WeatherDisplay:10.37,2013-06-29 18:00:00,
2013-06-29 14:05:00,74.5,66.1,29.62,WSW,248,4.7,6.9,75,0.00,BKN,,0.02,WeatherDisplay:10.37,2013-06-29 18:05:00,
2013-06-29 14:10:00,74.3,66.2,29.62,SSE,158,5.3,7.0,76,0.00,BKN,,0.02,WeatherDisplay:10.37,2013-06-29 18:10:00,
2013-06-29 14:15:00,74.8,67.1,29.62,South,180,3.6,5.8,77,0.00,BKN,,0.02,WeatherDisplay:10.37,2013-06-29 18:15:00,
2013-06-29 14:20:00,74.3,65.9,29.62,SE,135,4.7,6.9,75,0.00,BKN,,0.02,WeatherDisplay:10.37,2013-06-29 18:20:00,
2013-06-29 14:25:00,75.0,65.4,29.62,West,270,5.7,7.0,72,0.00,BKN,,0.02,WeatherDisplay:10.37,2013-06-29 18:25:00,
2013-06-29 14:30:00,76.1,66.0,29.62,SSW,202,4.2,8.1,71,0.00,BKN,,0.02,WeatherDisplay:10.37,2013-06-29 18:30:00,
2013-06-29 14:35:00,77.5,65.7,29.62,SSE,158,6.5,7.8,67,0.00,BKN,,0.02,WeatherDisplay:10.37,2013-06-29 18:35:00,
2013-06-29 14:40:00,75.0,63.7,29.62,SW,225,3.6,8.1,68,0.00,BKN,,0.02,WeatherDisplay:10.37,2013-06-29 18:40:00,
2013-06-29 14:45:00,74.8,63.5,29.62,SW,225,3.6,5.8,68,0.00,BKN,,0.02,WeatherDisplay:10.37,2013-06-29 18:45:00,
2013-06-29 14:50:00,75.0,64.1,29.62,West,270,3.7,6.1,69,0.00,BKN,,0.02,WeatherDisplay:10.37,2013-06-29 18:50:00,
2013-06-29 14:55:00,75.9,64.2,29.62,SSW,202,5.2,8.1,67,0.00,BKN,,0.02,WeatherDisplay:10.37,2013-06-29 18:55:00,
2013-06-29 15:00:00,75.9,64.2,29.62,West,270,4.9,6.1,67,0.00,BKN,,0.02,WeatherDisplay:10.37,2013-06-29 19:00:00,
2013-06-29 15:05:00,75.6,64.7,29.62,SSE,158,3.7,5.8,69,0.00,BKN,,0.02,WeatherDisplay:10.37,2013-06-29 19:05:00,
2013-06-29 15:10:00,75.6,65.9,29.62,WSW,248,2.5,3.5,72,0.00,BKN,,0.02,WeatherDisplay:10.37,2013-06-29 19:10:00,
2013-06-29 15:16:00,75.4,65.7,29.61,WSW,248,3.0,4.6,72,0.00,BKN,,0.02,WeatherDisplay:10.37,2013-06-29 19:16:00,
2013-06-29 15:21:00,75.7,65.2,29.61,SSW,202,5.1,6.1,70,0.00,BKN,,0.02,WeatherDisplay:10.37,2013-06-29 19:21:00,
2013-06-29 15:26:00,76.8,65.9,29.61,NW,315,4.8,8.1,69,0.00,BKN,,0.02,WeatherDisplay:10.37,2013-06-29 19:26:00,
2013-06-29 15:31:00,78.1,65.4,29.62,WSW,248,8.8,12.1,65,0.00,BKN,,0.02,WeatherDisplay:10.37,2013-06-29 19:31:00,
2013-06-29 15:36:00,77.0,65.2,29.62,WNW,292,5.3,8.1,67,0.00,BKN,,0.02,WeatherDisplay:10.37,2013-06-29 19:36:00,
2013-06-29 15:41:00,79.2,66.9,29.61,SW,225,4.2,5.3,66,0.00,BKN,,0.02,WeatherDisplay:10.37,2013-06-29 19:41:00,
2013-06-29 15:46:00,79.2,66.4,29.61,SSE,158,4.1,9.2,65,0.00,BKN,,0.02,WeatherDisplay:10.37,2013-06-29 19:46:00,
2013-06-29 15:51:00,79.5,67.1,29.62,South,180,3.3,6.1,66,0.00,BKN,,0.02,WeatherDisplay:10.37,2013-06-29 19:51:00,
2013-06-29 15:56:00,79.5,66.7,29.62,SSE,158,4.7,8.1,65,0.00,BKN,,0.02,WeatherDisplay:10.37,2013-06-29 19:56:00,
2013-06-29 16:01:00,79.9,66.6,29.62,West,270,5.4,7.8,64,0.00,BKN,,0.02,WeatherDisplay:10.37,2013-06-29 20:01:00,
2013-06-29 16:06:00,79.7,66.4,29.62,SW,225,3.8,5.8,64,0.00,BKN,,0.02,WeatherDisplay:10.37,2013-06-29 20:06:00,
2013-06-29 16:11:00,79.0,66.7,29.62,WSW,248,3.5,5.8,66,0.00,BKN,,0.02,WeatherDisplay:10.37,2013-06-29 20:11:00,
2013-06-29 16:16:00,79.0,65.3,29.62,West,270,6.5,9.5,63,0.00,BKN,,0.02,WeatherDisplay:10.37,2013-06-29 20:16:00,
2013-06-29 16:21:00,79.3,66.1,29.62,SW,225,3.6,5.8,64,0.00,BKN,,0.02,WeatherDisplay:10.37,2013-06-29 20:21:00,
2013-06-29 16:26:00,80.2,66.0,29.62,SW,225,5.1,8.1,62,0.00,BKN,,0.02,WeatherDisplay:10.37,2013-06-29 20:26:00,
2013-06-29 16:31:00,79.0,64.9,29.62,WSW,248,4.4,5.8,62,0.00,BKN,,0.02,WeatherDisplay:10.37,2013-06-29 20:31:00,
2013-06-29 16:36:00,79.3,65.1,29.62,SSE,158,4.5,8.1,62,0.00,BKN,,0.02,WeatherDisplay:10.37,2013-06-29 20:36:00,
2013-06-29 16:41:00,79.5,65.3,29.62,SE,135,3.3,4.6,62,0.00,BKN,,0.02,WeatherDisplay:10.37,2013-06-29 20:41:00,
2013-06-29 16:46:00,79.2,65.1,29.62,South,180,4.0,4.6,62,0.00,BKN,,0.02,WeatherDisplay:10.37,2013-06-29 20:46:00,
2013-06-29 16:51:00,79.3,65.6,29.62,West,270,2.5,3.5,63,0.00,BKN,,0.02,WeatherDisplay:10.37,2013-06-29 20:51:00,
2013-06-29 16:56:00,78.8,66.0,29.62,SW,225,0.0,3.5,65,0.00,BKN,,0.02,WeatherDisplay:10.37,2013-06-29 20:56:00,
2013-06-29 17:01:00,77.7,65.4,29.62,SSE,158,3.8,4.6,66,0.00,BKN,,0.02,WeatherDisplay:10.37,2013-06-29 21:01:00,
2013-06-29 17:06:00,78.3,65.6,29.62,West,270,5.3,7.8,65,0.00,BKN,,0.02,WeatherDisplay:10.37,2013-06-29 21:06:00,
2013-06-29 17:11:00,77.7,65.0,29.62,SW,225,4.1,5.3,65,0.00,BKN,,0.02,WeatherDisplay:10.37,2013-06-29 21:11:00,
2013-06-29 17:16:00,77.4,65.6,29.62,SW,225,2.8,3.6,67,0.00,BKN,,0.02,WeatherDisplay:10.37,2013-06-29 21:16:00,
2013-06-29 17:21:00,77.4,65.1,29.62,WSW,248,2.6,5.8,66,0.00,BKN,,0.02,WeatherDisplay:10.37,2013-06-29 21:21:00,
2013-06-29 17:26:00,76.8,65.0,29.62,West,270,3.7,4.6,67,0.00,BKN,,0.02,WeatherDisplay:10.37,2013-06-29 21:26:00,
2013-06-29 17:31:00,77.4,65.1,29.62,WNW,292,3.5,4.6,66,0.00,SCT,,0.02,WeatherDisplay:10.37,2013-06-29 21:31:00,
2013-06-29 17:36:00,77.2,65.8,29.62,WSW,248,2.6,4.4,68,0.00,SCT,,0.02,WeatherDisplay:10.37,2013-06-29 21:36:00,
2013-06-29 17:41:00,77.0,65.6,29.61,West,270,0.0,5.8,68,0.00,SCT,,0.02,WeatherDisplay:10.37,2013-06-29 21:41:00,
2013-06-29 17:46:00,76.1,65.6,29.61,West,270,5.8,6.1,70,0.00,SCT,,0.02,WeatherDisplay:10.37,2013-06-29 21:46:00,
2013-06-29 17:51:00,75.2,65.9,29.62,West,270,5.4,9.2,73,0.00,SCT,,0.02,WeatherDisplay:10.37,2013-06-29 21:51:00,
2013-06-29 17:56:00,74.3,65.1,29.62,WSW,248,7.5,11.2,73,0.00,SCT,,0.02,WeatherDisplay:10.37,2013-06-29 21:56:00,
2013-06-29 18:01:00,74.3,65.5,29.62,WNW,292,0.0,2.3,74,0.00,BKN,,0.02,WeatherDisplay:10.37,2013-06-29 22:01:00,
2013-06-29 18:06:00,73.8,65.0,29.62,WNW,292,3.8,4.6,74,0.00,BKN,,0.02,WeatherDisplay:10.37,2013-06-29 22:06:00,
2013-06-29 18:11:00,73.2,64.8,29.62,NE,45,4.7,6.1,75,0.00,BKN,,0.02,WeatherDisplay:10.37,2013-06-29 22:11:00,
2013-06-29 18:16:00,72.5,64.9,29.62,WNW,292,2.7,5.3,77,0.00,BKN,,0.02,WeatherDisplay:10.37,2013-06-29 22:16:00,
2013-06-29 18:21:00,72.1,65.6,29.62,NNE,22,1.6,5.8,80,0.00,BKN,,0.02,WeatherDisplay:10.37,2013-06-29 22:21:00,
2013-06-29 18:26:00,72.3,65.4,29.62,SW,225,0.0,3.5,79,0.00,BKN,,0.02,WeatherDisplay:10.37,2013-06-29 22:26:00,
2013-06-29 18:31:00,72.1,65.6,29.63,West,270,2.0,4.6,80,0.00,BKN,,0.02,WeatherDisplay:10.37,2013-06-29 22:31:00,
2013-06-29 18:36:00,71.8,65.3,29.63,West,270,2.0,3.6,80,0.00,BKN,,0.02,WeatherDisplay:10.37,2013-06-29 22:36:00,
2013-06-29 18:42:00,72.0,65.5,29.63,SE,135,0.0,0.0,80,0.00,BKN,,0.02,WeatherDisplay:10.37,2013-06-29 22:42:00,
2013-06-29 18:47:00,72.5,66.0,29.63,SSE,158,1.2,3.5,80,0.00,BKN,,0.02,WeatherDisplay:10.37,2013-06-29 22:47:00,
2013-06-29 18:52:00,73.2,66.3,29.64,SE,135,2.4,4.4,79,0.00,BKN,,0.02,WeatherDisplay:10.37,2013-06-29 22:52:00,
2013-06-29 18:57:00,73.9,66.2,29.64,SSE,158,3.4,4.4,77,0.00,BKN,,0.02,WeatherDisplay:10.37,2013-06-29 22:57:00,
2013-06-29 19:02:00,74.7,65.9,29.65,West,270,6.4,8.7,74,0.00,BKN,,0.02,WeatherDisplay:10.37,2013-06-29 23:02:00,
2013-06-29 19:07:00,75.2,66.7,29.65,West,270,3.6,4.4,75,0.00,BKN,,0.02,WeatherDisplay:10.37,2013-06-29 23:07:00,
2013-06-29 19:12:00,75.2,66.3,29.65,West,270,4.6,7.0,74,0.00,BKN,,0.02,WeatherDisplay:10.37,2013-06-29 23:12:00,
2013-06-29 19:17:00,75.4,66.5,29.65,SSW,202,3.7,4.6,74,0.00,BKN,,0.02,WeatherDisplay:10.37,2013-06-29 23:17:00,
2013-06-29 19:22:00,75.0,66.1,29.65,South,180,3.5,5.8,74,0.00,BKN,,0.02,WeatherDisplay:10.37,2013-06-29 23:22:00,
2013-06-29 19:27:00,74.8,66.0,29.65,South,180,5.1,7.0,74,0.00,BKN,,0.02,WeatherDisplay:10.37,2013-06-29 23:27:00,
2013-06-29 19:32:00,74.3,65.9,29.65,SE,135,4.1,6.9,75,0.00,BKN,,0.02,WeatherDisplay:10.37,2013-06-29 23:32:00,
2013-06-29 19:37:00,73.9,65.1,29.65,WSW,248,6.6,10.4,74,0.00,BKN,,0.02,WeatherDisplay:10.37,2013-06-29 23:37:00,
2013-06-29 19:42:00,73.8,65.0,29.66,South,180,3.7,5.8,74,0.00,BKN,,0.02,WeatherDisplay:10.37,2013-06-29 23:42:00,
2013-06-29 19:47:00,73.4,64.2,29.66,ENE,68,3.9,9.2,73,0.00,BKN,,0.02,WeatherDisplay:10.37,2013-06-29 23:47:00,
2013-06-29 19:52:00,72.9,64.1,29.66,SSE,158,3.0,4.6,74,0.00,BKN,,0.02,WeatherDisplay:10.37,2013-06-29 23:52:00,
2013-06-29 19:57:00,72.5,64.1,29.66,SSE,158,2.0,4.6,75,0.00,BKN,,0.02,WeatherDisplay:10.37,2013-06-29 23:57:00,
2013-06-29 20:02:00,72.1,63.4,29.66,WNW,292,4.2,5.3,74,0.00,BKN,,0.02,WeatherDisplay:10.37,2013-06-30 00:02:00,
2013-06-29 20:07:00,71.6,63.6,29.66,SSE,158,3.3,4.6,76,0.00,BKN,,0.02,WeatherDisplay:10.37,2013-06-30 00:07:00,
2013-06-29 20:12:00,71.6,64.0,29.66,SW,225,2.7,4.6,77,0.00,BKN,,0.02,WeatherDisplay:10.37,2013-06-30 00:12:00,
2013-06-29 20:17:00,71.6,64.4,29.66,West,270,0.9,3.6,78,0.00,BKN,,0.02,WeatherDisplay:10.37,2013-06-30 00:17:00,
2013-06-29 20:22:00,71.1,64.6,29.66,West,270,1.5,2.3,80,0.00,BKN,,0.02,WeatherDisplay:10.37,2013-06-30 00:22:00,
2013-06-29 20:27:00,70.7,64.6,29.67,West,270,0.0,0.0,81,0.00,BKN,,0.02,WeatherDisplay:10.37,2013-06-30 00:27:00,
2013-06-29 20:32:00,70.2,64.1,29.67,NNE,22,1.1,3.6,81,0.00,BKN,,0.02,WeatherDisplay:10.37,2013-06-30 00:32:00,
2013-06-29 20:37:00,69.4,64.4,29.67,NNE,22,0.0,0.0,84,0.00,BKN,,0.02,WeatherDisplay:10.37,2013-06-30 00:37:00,
2013-06-29 20:42:00,69.4,64.4,29.67,NNE,22,0.0,0.0,84,0.00,BKN,,0.02,WeatherDisplay:10.37,2013-06-30 00:42:00,
2013-06-29 20:47:00,68.9,64.2,29.67,NNE,22,0.0,0.0,85,0.00,BKN,,0.02,WeatherDisplay:10.37,2013-06-30 00:47:00,
2013-06-29 20:52:00,68.4,64.0,29.67,NNE,22,0.0,0.0,86,0.00,BKN,,0.02,WeatherDisplay:10.37,2013-06-30 00:52:00,
2013-06-29 20:57:00,68.2,63.9,29.67,NNE,22,0.0,0.0,86,0.00,BKN,,0.02,WeatherDisplay:10.37,2013-06-30 00:57:00,
2013-06-29 21:02:00,68.0,64.0,29.68,NNE,22,0.0,0.0,87,0.00,BKN,,0.02,WeatherDisplay:10.37,2013-06-30 01:02:00,
2013-06-29 21:07:00,67.5,63.8,29.68,NNE,22,0.0,0.0,88,0.00,BKN,,0.02,WeatherDisplay:10.37,2013-06-30 01:07:00,
2013-06-29 21:12:00,66.7,64.0,29.68,NNE,22,0.0,0.0,91,0.00,BKN,,0.02,WeatherDisplay:10.37,2013-06-30 01:12:00,
2013-06-29 21:17:00,66.6,64.2,29.68,NNE,22,0.0,0.0,92,0.00,BKN,,0.02,WeatherDisplay:10.37,2013-06-30 01:17:00,
2013-06-29 21:22:00,66.2,63.8,29.68,NNE,22,0.0,0.0,92,0.00,BKN,,0.02,WeatherDisplay:10.37,2013-06-30 01:22:00,
2013-06-29 21:27:00,66.2,63.8,29.68,NNE,22,0.0,0.0,92,0.00,BKN,,0.02,WeatherDisplay:10.37,2013-06-30 01:27:00,
2013-06-29 21:32:00,65.7,63.6,29.68,NNE,22,0.0,0.0,93,0.00,BKN,,0.02,WeatherDisplay:10.37,2013-06-30 01:32:00,
2013-06-29 21:37:00,65.7,63.6,29.68,NNE,22,0.0,0.0,93,0.00,BKN,,0.02,WeatherDisplay:10.37,2013-06-30 01:37:00,
2013-06-29 21:42:00,65.5,63.4,29.69,NNE,22,0.0,0.0,93,0.00,BKN,,0.02,WeatherDisplay:10.37,2013-06-30 01:42:00,
2013-06-29 21:47:00,65.1,63.3,29.69,NNE,22,0.0,0.0,94,0.00,BKN,,0.02,WeatherDisplay:10.37,2013-06-30 01:47:00,
2013-06-29 21:52:00,65.1,63.3,29.70,NNE,22,0.0,0.0,94,0.00,BKN,,0.02,WeatherDisplay:10.37,2013-06-30 01:52:00,
2013-06-29 21:57:00,64.6,63.1,29.70,NNE,22,0.0,0.0,95,0.00,BKN,,0.02,WeatherDisplay:10.37,2013-06-30 01:57:00,
2013-06-29 22:03:00,64.4,62.9,29.70,NNE,22,0.0,0.0,95,0.00,SKC,,0.02,WeatherDisplay:10.37,2013-06-30 02:03:00,
2013-06-29 22:07:00,64.4,62.9,29.70,NNE,22,0.0,0.0,95,0.00,SKC,,0.02,WeatherDisplay:10.37,2013-06-30 02:07:00,
2013-06-29 22:13:00,64.4,62.9,29.70,NNE,22,0.0,0.0,95,0.00,SKC,,0.02,WeatherDisplay:10.37,2013-06-30 02:13:00,
2013-06-29 22:18:00,64.0,62.8,29.70,NNE,22,0.0,0.0,96,0.00,SKC,,0.02,WeatherDisplay:10.37,2013-06-30 02:18:00,
2013-06-29 22:23:00,64.0,62.8,29.70,NNE,22,0.0,0.0,96,0.00,SKC,,0.02,WeatherDisplay:10.37,2013-06-30 02:23:00,
2013-06-29 22:28:00,64.0,62.8,29.70,NNE,22,0.0,0.0,96,0.00,SKC,,0.02,WeatherDisplay:10.37,2013-06-30 02:28:00,
2013-06-29 22:33:00,63.9,62.7,29.70,NNE,22,0.0,0.0,96,0.00,SKC,,0.02,WeatherDisplay:10.37,2013-06-30 02:33:00,
2013-06-29 22:38:00,63.7,62.8,29.70,NNE,22,0.0,0.0,97,0.00,SKC,,0.02,WeatherDisplay:10.37,2013-06-30 02:38:00,
2013-06-29 22:43:00,63.5,62.6,29.70,NNE,22,0.0,0.0,97,0.00,SKC,,0.02,WeatherDisplay:10.37,2013-06-30 02:43:00,
2013-06-29 22:48:00,63.3,62.7,29.70,NNE,22,0.0,0.0,98,0.00,SKC,,0.02,WeatherDisplay:10.37,2013-06-30 02:48:00,
2013-06-29 22:53:00,63.3,62.7,29.70,NNE,22,0.0,0.0,98,0.00,SKC,,0.02,WeatherDisplay:10.37,2013-06-30 02:53:00,
2013-06-29 22:58:00,63.1,62.5,29.70,NNE,22,0.0,0.0,98,0.00,SKC,,0.02,WeatherDisplay:10.37,2013-06-30 02:58:00,
2013-06-29 23:03:00,63.1,62.5,29.70,NNE,22,0.0,0.0,98,0.00,SKC,,0.02,WeatherDisplay:10.37,2013-06-30 03:03:00,
2013-06-29 23:08:00,63.0,62.4,29.71,NNE,22,0.0,0.0,98,0.00,SKC,,0.02,WeatherDisplay:10.37,2013-06-30 03:08:00,
2013-06-29 23:13:00,63.0,62.4,29.71,NNE,22,0.0,0.0,98,0.00,SKC,,0.02,WeatherDisplay:10.37,2013-06-30 03:13:00,
2013-06-29 23:18:00,62.8,62.2,29.71,NNE,22,0.0,0.0,98,0.00,SKC,,0.02,WeatherDisplay:10.37,2013-06-30 03:18:00,
2013-06-29 23:23:00,62.8,62.2,29.71,NNE,22,0.0,0.0,98,0.00,SKC,,0.02,WeatherDisplay:10.37,2013-06-30 03:23:00,
2013-06-29 23:28:00,62.8,62.2,29.71,NNE,22,0.0,0.0,98,0.00,SKC,,0.02,WeatherDisplay:10.37,2013-06-30 03:28:00,
2013-06-29 23:33:00,62.6,62.0,29.71,NNE,22,0.0,0.0,98,0.00,SKC,,0.02,WeatherDisplay:10.37,2013-06-30 03:33:00,
2013-06-29 23:39:00,62.8,62.5,29.71,NNE,22,0.0,0.0,99,0.00,SKC,,0.02,WeatherDisplay:10.37,2013-06-30 03:39:00,
2013-06-29 23:44:00,62.8,62.5,29.71,NNE,22,0.0,0.0,99,0.00,SKC,,0.02,WeatherDisplay:10.37,2013-06-30 03:44:00,
2013-06-29 23:50:00,62.8,62.5,29.71,NNE,22,0.0,0.0,99,0.00,SKC,SKC,0.02,WeatherDisplay:10.37,2013-06-30 03:50:00,
2013-06-29 23:55:00,62.8,62.5,29.71,NNE,22,0.0,0.0,99,0.00,SKC,SKC,0.02,WeatherDisplay:10.37,2013-06-30 03:55:00,